Terminal Aerodrome Forecast
Issued by NWS

Home | Current Version | Previous Version | Text Only | Print | Product List | Glossary On
Versions: 1 2 3 4 5 6 7 8 9 10 11 12 13 14 15 16 17 18 19 20 21 22 23 24 25 26 27 28
000
FTUS42 KTAE 170200 AAA
TAFVLD
TAF AMD
KVLD 170211Z 1702/1724 00000KT P6SM BKN100
     FM170900 00000KT 2SM BR OVC004
     FM171500 01004KT P6SM SCT250=

USA.gov is the U.S. government's official web portal to all federal, state and local government web resources and services.